Home   Weather   Canada   Cambridge   Past weeks
Flag for Canada

Past Weather in Cambridge, Ontario, Canada — Yesterday and Last 2 Weeks

Currently: 45 °F. Fog. (Weather station: Waterloo Well, Canada). See more current weather

Past Weather in Cambridge — Graph

°F

Cambridge Temperature Yesterday

Maximum temperature yesterday: 55 °F (at 2:51 pm)
Minimum temperature yesterday: 45 °F (at 7:16 pm)
Average temperature yesterday: 49 °F

High & Low Weather Summary for the Past Weeks

 TemperatureHumidityPressure
High73 °F (Apr 8, 2:00 pm)100% (Apr 4, 2:00 am)30.46 "Hg (Apr 4, 2:00 am)
Low19 °F (Apr 3, 5:00 am)21% (Apr 7, 7:00 pm)29.43 "Hg (Apr 11, 7:00 am)
Average47 °F69%29.94 "Hg
* Reported Mar 29 3:00 am — Apr 13 3:00 am, Cambridge. Weather by CustomWeather, © 2021

Note: Actual official high and low records may vary slightly from our data, if they occured in-between our weather recording intervals... More about our weather records

Cambridge Weather History for the Previous 24 Hours

Scroll right to see more
 ConditionsComfort  
Time TempWeatherWind HumidityBarometerVisibility
3:00 am
Tue, Apr 13
43 °FFog.7 mph100%29.97 "Hg1 mi
2:00 am43 °FFog.6 mph100%29.95 "Hg0 mi
1:16 am43 °FFog.3 mph100%29.96 "Hg1 mi
1:00 am45 °FFog.6 mph100%29.95 "Hg1 mi
12:00 am45 °FFog.10 mph100%29.93 "Hg1 mi
11:12 pm
Mon, Apr 12
45 °FFog.9 mph100%29.94 "Hg2 mi
10:00 pm45 °FFog.7 mph100%29.94 "Hg1 mi
9:22 pm45 °FFog.7 mph100%29.93 "Hg2 mi
9:03 pm45 °FFog.9 mph100%29.92 "Hg2 mi
8:00 pm45 °FFog.8 mph100%29.88 "Hg5 mi
7:35 pm45 °FFog.15 mph100%29.87 "Hg6 mi
7:16 pm45 °FFog.13 mph100%29.86 "Hg5 mi
6:04 pm48 °FFog.12 mph94%29.81 "Hg6 mi
5:24 pm50 °FFog.12 mph94%29.78 "Hg5 mi
5:00 pm50 °FLow clouds.15 mph94%29.77 "Hg7 mi
4:00 pm54 °FMostly cloudy.9 mph88%29.74 "Hg9 mi
3:00 pm54 °FMostly cloudy.10 mph88%29.72 "Hg9 mi
2:51 pm55 °FCloudy.7 mph82%29.71 "Hg9 mi
2:25 pm54 °FLight rain. Cloudy.9 mph94%29.70 "Hg9 mi
2:13 pm54 °FCloudy.10 mph88%29.70 "Hg9 mi
2:00 pm54 °FCloudy.6 mph88%29.70 "Hg9 mi
1:00 pm52 °FOvercast.5 mph94%29.68 "Hg9 mi
12:10 pm54 °FMostly cloudy.2 mph82%29.66 "Hg9 mi
11:36 am52 °FLight rain. Mostly cloudy.2 mph88%29.65 "Hg9 mi
11:00 am52 °FLow clouds.3 mph94%29.65 "Hg9 mi
10:51 am52 °FMostly cloudy.3 mph88%29.65 "Hg9 mi
10:27 am50 °FLight rain. Mostly cloudy.No wind94%29.64 "Hg9 mi
10:00 am50 °FLight rain. More clouds than sun.3 mph100%29.63 "Hg9 mi
9:15 am50 °FLight rain. Mostly cloudy.2 mph94%29.62 "Hg9 mi
9:00 am48 °FLight rain. Low clouds.2 mph100%29.61 "Hg9 mi
8:34 am48 °FLight rain. Mostly cloudy.No wind100%29.61 "Hg9 mi
8:00 am48 °FLight rain. Mostly cloudy.3 mph100%29.60 "Hg9 mi
7:26 am48 °FLight rain. Fog.3 mph100%29.59 "Hg3 mi
7:10 am48 °FLight rain. Fog.3 mph100%29.59 "Hg2 mi
6:55 am48 °FLight rain. Fog.3 mph100%29.59 "Hg1 mi
6:36 am48 °FLight rain. Fog.3 mph100%29.58 "Hg2 mi
6:00 am48 °FLight rain. Fog.3 mph100%29.57 "Hg1 mi
5:38 am48 °FLight rain. Fog.7 mph100%29.57 "Hg1 mi
5:14 am48 °FLight rain. Fog.5 mph100%29.57 "Hg2 mi
5:07 am48 °FLight rain. Fog.No wind100%29.56 "Hg2 mi
4:43 am50 °FLight rain. Fog.6 mph94%29.56 "Hg5 mi
4:03 am50 °FLight rain. Fog.7 mph94%29.56 "Hg3 mi
Weather by CustomWeather, © 2021

See weather overview